createdAt,value
2019-06-26T00:00:51.941Z,52.16
2019-06-26T00:03:20.421Z,52.45
2019-06-26T00:05:48.880Z,52.49
2019-06-26T00:08:17.369Z,52.62
2019-06-26T00:10:46.015Z,52.35
2019-06-26T00:13:25.612Z,52.55
2019-06-26T00:15:44.718Z,52.68
2019-06-26T00:18:13.255Z,52.90
2019-06-26T00:20:41.753Z,53.03
2019-06-26T00:23:10.246Z,53.19
2019-06-26T00:25:38.739Z,53.38
2019-06-26T00:28:07.231Z,53.49
2019-06-26T00:30:35.705Z,53.84
2019-06-26T00:33:04.270Z,53.66
2019-06-26T00:35:32.754Z,53.63
2019-06-26T00:38:01.266Z,53.97
2019-06-26T00:40:29.743Z,53.80
2019-06-26T00:42:58.246Z,53.58
2019-06-26T00:45:26.687Z,53.58
2019-06-26T00:47:55.188Z,53.66
2019-06-26T00:50:23.667Z,53.79
2019-06-26T00:52:52.187Z,53.96
2019-06-26T00:55:20.692Z,54.05
2019-06-26T00:57:49.210Z,54.16
2019-06-26T01:00:18.031Z,54.11
2019-06-26T01:02:46.575Z,53.98
2019-06-26T01:05:15.256Z,54.23
2019-06-26T01:07:44.204Z,54.77
2019-06-26T01:10:13.528Z,54.45
2019-06-26T01:12:42.026Z,54.80
2019-06-26T01:15:11.222Z,54.76
2019-06-26T01:17:39.725Z,54.62
2019-06-26T01:20:08.853Z,54.98
2019-06-26T01:22:37.412Z,55.26
2019-06-26T01:25:06.837Z,55.27
2019-06-26T01:27:35.350Z,54.67
2019-06-26T01:30:05.907Z,55.06
2019-06-26T01:32:34.521Z,55.54
2019-06-26T01:35:03.543Z,55.96
2019-06-26T01:37:32.030Z,55.52
2019-06-26T01:40:00.525Z,55.71
2019-06-26T01:42:29.032Z,56.60
2019-06-26T01:44:57.505Z,55.85
2019-06-26T01:47:26.014Z,56.08
2019-06-26T01:49:54.476Z,56.31
2019-06-26T01:52:22.954Z,56.58
2019-06-26T01:54:51.457Z,57.01
2019-06-26T01:57:21.548Z,56.71
2019-06-26T01:59:51.758Z,56.78
2019-06-26T02:02:24.763Z,57.10
2019-06-26T02:04:57.421Z,56.84
2019-06-26T02:07:26.225Z,57.43
2019-06-26T02:09:58.842Z,57.44
2019-06-26T02:12:27.376Z,57.72
2019-06-26T02:15:01.459Z,57.89
2019-06-26T02:17:30.036Z,57.70
2019-06-26T02:20:00.420Z,57.87
2019-06-26T02:22:32.440Z,58.12
2019-06-26T02:25:02.740Z,58.85
2019-06-26T02:27:38.762Z,57.97
2019-06-26T02:30:09.997Z,58.29
2019-06-26T02:32:46.484Z,58.41
2019-06-26T02:35:21.364Z,58.67
2019-06-26T02:37:54.357Z,58.55
2019-06-26T02:40:25.952Z,59.14
2019-06-26T02:42:55.327Z,58.67
2019-06-26T02:45:25.576Z,58.92
2019-06-26T02:47:58.670Z,59.04
2019-06-26T02:50:27.182Z,59.10
2019-06-26T02:53:00.723Z,59.27
2019-06-26T02:55:31.240Z,59.54
2019-06-26T02:58:01.694Z,60.35
2019-06-26T03:00:32.094Z,59.47
2019-06-26T03:03:01.433Z,59.87
2019-06-26T03:05:29.949Z,59.91
2019-06-26T03:07:58.447Z,60.96
2019-06-26T03:10:26.958Z,60.19
2019-06-26T03:12:55.461Z,61.45
2019-06-26T03:15:23.973Z,61.81
2019-06-26T03:17:55.597Z,60.17
2019-06-26T03:20:25.777Z,60.82
2019-06-26T03:22:54.292Z,60.80
2019-06-26T03:25:22.783Z,60.60
2019-06-26T03:27:51.277Z,60.86
2019-06-26T03:30:20.156Z,61.50
2019-06-26T03:32:48.654Z,61.24
2019-06-26T03:35:17.331Z,61.64
2019-06-26T03:37:45.815Z,61.78
2019-06-26T03:40:14.969Z,62.78
2019-06-26T03:42:43.455Z,62.12
2019-06-26T03:45:25.242Z,61.96
2019-06-26T03:47:42.763Z,63.11
2019-06-26T03:50:12.309Z,62.36
2019-06-26T03:52:40.788Z,62.47
2019-06-26T03:55:09.738Z,62.77
2019-06-26T03:57:38.243Z,62.73
2019-06-26T04:00:10.345Z,62.75
2019-06-26T04:02:38.948Z,63.18
2019-06-26T04:05:08.307Z,63.56
2019-06-26T04:07:36.782Z,63.35
2019-06-26T04:10:07.381Z,63.64
2019-06-26T04:12:35.885Z,63.58
2019-06-26T04:15:06.932Z,63.62
2019-06-26T04:17:35.499Z,63.98
2019-06-26T04:20:07.263Z,64.25
2019-06-26T04:22:35.764Z,64.11
2019-06-26T04:25:06.816Z,64.40
2019-06-26T04:27:35.307Z,64.48
2019-06-26T04:30:05.640Z,64.82
2019-06-26T04:32:34.167Z,64.64
2019-06-26T04:35:02.676Z,64.72
2019-06-26T04:37:31.176Z,65.25
2019-06-26T04:39:59.681Z,64.89
2019-06-26T04:42:28.190Z,65.19
2019-06-26T04:44:56.700Z,65.86
2019-06-26T04:47:25.233Z,66.55
2019-06-26T04:49:53.690Z,66.85
2019-06-26T04:52:22.197Z,66.79
2019-06-26T04:54:50.676Z,65.75
2019-06-26T04:57:19.459Z,65.81
2019-06-26T04:59:47.944Z,66.68
2019-06-26T05:02:16.454Z,66.58
2019-06-26T05:04:45.067Z,66.39
2019-06-26T05:07:13.560Z,66.52
2019-06-26T05:09:42.047Z,66.76
2019-06-26T05:12:10.604Z,66.64
2019-06-26T05:14:39.075Z,66.93
2019-06-26T05:17:07.565Z,66.78
2019-06-26T05:19:36.077Z,67.19
2019-06-26T05:22:04.722Z,66.88
2019-06-26T05:24:33.270Z,66.14
2019-06-26T05:27:01.834Z,66.88
2019-06-26T05:29:30.354Z,67.06
2019-06-26T05:31:58.826Z,66.43
2019-06-26T05:34:27.334Z,66.63
2019-06-26T05:36:55.817Z,66.27
2019-06-26T05:39:24.324Z,65.70
2019-06-26T05:41:52.904Z,65.99
2019-06-26T05:44:21.476Z,66.12
2019-06-26T05:46:49.947Z,65.49
2019-06-26T05:49:18.454Z,65.59
2019-06-26T05:51:46.936Z,65.53
2019-06-26T05:54:15.481Z,65.69
2019-06-26T05:56:45.462Z,65.87
2019-06-26T05:59:14.216Z,65.44
2019-06-26T06:01:42.814Z,65.15
2019-06-26T06:04:11.318Z,65.15
2019-06-26T06:06:41.994Z,65.11
2019-06-26T06:09:10.044Z,64.62
2019-06-26T06:11:38.524Z,64.12
2019-06-26T06:14:07.057Z,63.86
2019-06-26T06:16:46.900Z,64.63
2019-06-26T06:19:05.923Z,64.13
2019-06-26T06:21:34.382Z,63.05
2019-06-26T06:24:03.174Z,63.05
2019-06-26T06:26:31.644Z,62.19
2019-06-26T06:29:00.198Z,60.64
2019-06-26T06:31:29.104Z,58.81
2019-06-26T06:33:57.623Z,59.61
2019-06-26T06:36:26.133Z,58.85
2019-06-26T06:38:54.713Z,59.26
2019-06-26T06:41:23.201Z,58.46
2019-06-26T06:43:51.700Z,55.23
2019-06-26T06:46:20.366Z,54.82
2019-06-26T06:48:48.940Z,55.97
2019-06-26T06:51:17.495Z,55.53
2019-06-26T06:53:46.154Z,55.41
2019-06-26T06:56:15.856Z,54.45
2019-06-26T06:58:44.346Z,54.23
2019-06-26T07:01:12.883Z,54.31
2019-06-26T07:03:41.408Z,53.42
2019-06-26T07:06:09.955Z,53.15
2019-06-26T07:08:38.578Z,52.28
2019-06-26T07:11:07.125Z,49.52
2019-06-26T07:13:35.662Z,49.48
2019-06-26T07:16:04.373Z,50.16
2019-06-26T07:18:32.897Z,49.52
2019-06-26T07:21:01.593Z,49.55
2019-06-26T07:23:30.322Z,49.07
2019-06-26T07:25:58.870Z,48.39
2019-06-26T07:28:27.395Z,47.47
2019-06-26T07:30:56.010Z,46.30
2019-06-26T07:33:24.507Z,45.73
2019-06-26T07:35:53.075Z,45.53
2019-06-26T07:38:21.693Z,44.20
2019-06-26T07:40:50.228Z,46.57
2019-06-26T07:43:18.805Z,43.43
2019-06-26T07:45:48.890Z,43.75
2019-06-26T07:48:17.442Z,44.12
2019-06-26T07:50:45.958Z,43.54
2019-06-26T07:53:14.507Z,41.10
2019-06-26T07:55:43.050Z,39.55
2019-06-26T07:58:11.630Z,40.32
2019-06-26T08:00:40.167Z,43.12
2019-06-26T08:03:08.719Z,40.95
2019-06-26T08:05:37.255Z,41.35
2019-06-26T08:08:05.790Z,41.16
2019-06-26T08:10:34.290Z,40.69
2019-06-26T08:13:02.886Z,40.15
2019-06-26T08:15:31.518Z,40.33
2019-06-26T08:18:01.526Z,40.03
2019-06-26T08:20:30.276Z,40.12
2019-06-26T08:22:58.791Z,39.55
2019-06-26T08:25:27.298Z,39.93
2019-06-26T08:27:55.817Z,39.14
2019-06-26T08:30:24.698Z,39.02
2019-06-26T08:32:53.229Z,38.72
2019-06-26T08:35:21.709Z,38.82
2019-06-26T08:37:50.222Z,39.85
2019-06-26T08:40:19.149Z,38.59
2019-06-26T08:42:47.640Z,38.94
2019-06-26T08:45:16.606Z,38.39
2019-06-26T08:47:45.205Z,38.73
2019-06-26T08:50:14.362Z,39.00
2019-06-26T08:52:42.893Z,37.15
2019-06-26T08:55:11.881Z,38.73
2019-06-26T08:57:40.441Z,38.40
2019-06-26T09:00:10.907Z,37.67
2019-06-26T09:02:39.443Z,36.35
2019-06-26T09:05:08.555Z,36.51
2019-06-26T09:07:37.102Z,34.75
2019-06-26T09:10:07.652Z,34.36
2019-06-26T09:12:36.173Z,34.96
2019-06-26T09:15:06.643Z,35.15
2019-06-26T09:17:36.714Z,34.80
2019-06-26T09:20:07.046Z,36.01
2019-06-26T09:22:35.801Z,35.72
2019-06-26T09:25:20.946Z,34.11
2019-06-26T09:27:36.692Z,35.38
2019-06-26T09:30:09.192Z,33.46
2019-06-26T09:32:37.726Z,34.23
2019-06-26T09:35:07.277Z,34.92
2019-06-26T09:37:35.765Z,34.34
2019-06-26T09:40:05.485Z,33.53
2019-06-26T09:42:34.015Z,34.34
2019-06-26T09:45:02.521Z,32.88
2019-06-26T09:47:31.285Z,33.47
2019-06-26T09:49:59.910Z,33.74
2019-06-26T09:52:28.440Z,33.70
2019-06-26T09:54:57.091Z,33.17
2019-06-26T09:57:25.650Z,32.97
2019-06-26T09:59:54.216Z,33.59
2019-06-26T10:02:22.772Z,32.99
2019-06-26T10:04:51.406Z,31.29
2019-06-26T10:07:19.883Z,32.52
2019-06-26T10:09:48.419Z,33.42
2019-06-26T10:12:16.964Z,32.77
2019-06-26T10:14:47.782Z,32.03
2019-06-26T10:17:15.636Z,31.26
2019-06-26T10:19:44.300Z,31.83
2019-06-26T10:22:12.758Z,30.95
2019-06-26T10:24:41.374Z,32.06
2019-06-26T10:27:09.938Z,31.93
2019-06-26T10:29:38.526Z,31.21
2019-06-26T10:32:07.156Z,31.25
2019-06-26T10:34:35.683Z,31.22
2019-06-26T10:37:04.488Z,31.77
2019-06-26T10:39:33.079Z,32.54
2019-06-26T10:42:01.604Z,31.62
2019-06-26T10:44:30.157Z,32.79
2019-06-26T10:46:58.796Z,31.96
2019-06-26T10:49:28.075Z,31.19
2019-06-26T10:51:56.824Z,32.00
2019-06-26T10:54:25.454Z,31.00
2019-06-26T10:56:55.499Z,32.38
2019-06-26T10:59:24.021Z,32.54
2019-06-26T11:01:52.605Z,33.05
2019-06-26T11:04:21.168Z,33.06
2019-06-26T11:06:49.883Z,33.65
2019-06-26T11:09:18.432Z,34.09
2019-06-26T11:11:46.905Z,34.40
2019-06-26T11:14:15.420Z,34.43
2019-06-26T11:16:44.056Z,33.61
2019-06-26T11:19:12.550Z,33.94
2019-06-26T11:21:41.076Z,34.09
2019-06-26T11:24:09.561Z,33.68
2019-06-26T11:26:38.078Z,33.60
2019-06-26T11:29:06.621Z,34.58
2019-06-26T11:31:35.130Z,34.77
2019-06-26T11:34:03.809Z,34.44
2019-06-26T11:36:32.325Z,33.53
2019-06-26T11:39:00.920Z,33.73
2019-06-26T11:41:29.419Z,35.16
2019-06-26T11:43:57.879Z,35.30
2019-06-26T11:46:26.468Z,36.87
2019-06-26T11:48:55.077Z,35.78
2019-06-26T11:51:23.683Z,35.41
2019-06-26T11:53:52.266Z,35.39
2019-06-26T11:56:20.881Z,35.83
2019-06-26T11:58:49.386Z,35.84
2019-06-26T12:01:18.051Z,35.68
2019-06-26T12:03:46.585Z,35.03
2019-06-26T12:06:18.965Z,35.29
2019-06-26T12:08:45.390Z,35.99
2019-06-26T12:11:16.693Z,35.60
2019-06-26T12:13:45.294Z,35.80
2019-06-26T12:16:13.812Z,36.12
2019-06-26T12:18:42.431Z,36.83
2019-06-26T12:21:10.931Z,36.03
2019-06-26T12:23:39.594Z,35.98
2019-06-26T12:26:08.106Z,36.15
2019-06-26T12:28:36.749Z,36.08
2019-06-26T12:31:05.322Z,36.31
2019-06-26T12:33:33.793Z,36.20
2019-06-26T12:36:02.293Z,36.18
2019-06-26T12:38:30.790Z,36.81
2019-06-26T12:40:59.298Z,36.09
2019-06-26T12:43:27.801Z,35.57
2019-06-26T12:45:56.312Z,35.90
2019-06-26T12:48:24.799Z,36.72
2019-06-26T12:50:53.366Z,36.95
2019-06-26T12:53:21.856Z,36.75
2019-06-26T12:55:50.449Z,36.80
2019-06-26T12:58:20.221Z,36.68
2019-06-26T13:00:48.981Z,37.00
2019-06-26T13:03:17.473Z,36.85
2019-06-26T13:05:46.018Z,36.68
2019-06-26T13:08:14.744Z,35.63
2019-06-26T13:10:49.684Z,36.30
2019-06-26T13:13:13.490Z,36.83
2019-06-26T13:15:42.040Z,36.83
2019-06-26T13:18:10.645Z,37.44
2019-06-26T13:20:52.219Z,38.25
2019-06-26T13:23:10.357Z,38.31
2019-06-26T13:25:38.907Z,38.19
2019-06-26T13:28:07.434Z,38.38
2019-06-26T13:30:39.152Z,38.28
2019-06-26T13:33:07.965Z,37.98
2019-06-26T13:35:36.519Z,38.36
2019-06-26T13:38:05.459Z,38.12
2019-06-26T13:40:34.049Z,38.32
2019-06-26T13:43:02.578Z,38.98
2019-06-26T13:45:31.056Z,38.72
2019-06-26T13:47:59.610Z,38.82
2019-06-26T13:50:28.273Z,39.77
2019-06-26T13:52:56.808Z,38.95
2019-06-26T13:55:25.436Z,39.47
2019-06-26T13:57:53.958Z,39.42
2019-06-26T14:00:22.847Z,39.99
2019-06-26T14:02:51.409Z,39.83
2019-06-26T14:05:20.094Z,39.92
2019-06-26T14:07:48.694Z,39.73
2019-06-26T14:10:18.051Z,40.70
2019-06-26T14:12:46.651Z,39.73
2019-06-26T14:15:16.845Z,39.59
2019-06-26T14:17:45.520Z,40.05
2019-06-26T14:20:14.198Z,39.72
2019-06-26T14:22:42.813Z,40.35
2019-06-26T14:25:11.967Z,40.94
2019-06-26T14:27:40.487Z,40.34
2019-06-26T14:30:09.699Z,41.69
2019-06-26T14:32:38.217Z,41.24
2019-06-26T14:35:08.640Z,40.14
2019-06-26T14:37:37.146Z,40.45
2019-06-26T14:40:09.205Z,41.27
2019-06-26T14:42:37.907Z,41.11
2019-06-26T14:45:10.356Z,40.46
2019-06-26T14:47:38.995Z,40.52
2019-06-26T14:50:08.597Z,40.22
2019-06-26T14:52:37.184Z,40.03
2019-06-26T14:55:09.724Z,41.17
2019-06-26T14:57:38.254Z,41.33
2019-06-26T15:00:08.581Z,41.62
2019-06-26T15:02:37.136Z,41.72
2019-06-26T15:05:07.461Z,42.20
2019-06-26T15:07:36.020Z,42.37
2019-06-26T15:10:06.570Z,42.03
2019-06-26T15:12:35.152Z,42.60
2019-06-26T15:15:04.208Z,42.71
2019-06-26T15:17:32.801Z,42.83
2019-06-26T15:20:01.354Z,42.50
2019-06-26T15:22:29.867Z,42.92
2019-06-26T15:24:58.380Z,42.97
2019-06-26T15:27:26.950Z,43.65
2019-06-26T15:29:55.444Z,44.16
2019-06-26T15:32:23.961Z,43.75
2019-06-26T15:34:52.477Z,44.25
2019-06-26T15:37:21.152Z,43.52
2019-06-26T15:39:49.762Z,44.42
2019-06-26T15:42:18.327Z,43.48
2019-06-26T15:44:46.883Z,43.01
2019-06-26T15:47:15.448Z,43.21
2019-06-26T15:49:44.764Z,43.54
2019-06-26T15:52:15.425Z,43.81
2019-06-26T15:54:43.592Z,43.42
2019-06-26T15:57:12.086Z,43.38
2019-06-26T15:59:40.608Z,42.42
2019-06-26T16:02:09.219Z,42.29
2019-06-26T16:04:37.769Z,42.32
2019-06-26T16:07:06.284Z,41.81
2019-06-26T16:09:36.476Z,42.13
2019-06-26T16:12:04.957Z,41.44
2019-06-26T16:14:33.514Z,42.06
2019-06-26T16:17:03.674Z,42.05
2019-06-26T16:19:32.827Z,41.75
2019-06-26T16:22:01.364Z,42.56
2019-06-26T16:24:30.317Z,42.17
2019-06-26T16:26:58.975Z,41.55
2019-06-26T16:29:27.482Z,42.04
2019-06-26T16:31:56.085Z,41.66
2019-06-26T16:34:24.702Z,41.20
2019-06-26T16:36:53.190Z,41.16
2019-06-26T16:39:23.474Z,41.76
2019-06-26T16:41:52.224Z,42.15
2019-06-26T16:44:22.182Z,41.59
2019-06-26T16:46:51.021Z,41.74
2019-06-26T16:49:19.756Z,41.63
2019-06-26T16:51:48.301Z,42.00
2019-06-26T16:54:16.798Z,41.75
2019-06-26T16:56:45.425Z,41.81
2019-06-26T16:59:13.916Z,43.40
2019-06-26T17:01:42.511Z,43.35
2019-06-26T17:04:12.635Z,43.61
2019-06-26T17:06:41.135Z,43.54
2019-06-26T17:09:10.401Z,44.24
2019-06-26T17:11:38.937Z,44.09
2019-06-26T17:14:07.511Z,44.48
2019-06-26T17:16:36.356Z,44.24
2019-06-26T17:19:05.017Z,44.77
2019-06-26T17:21:33.567Z,44.36
2019-06-26T17:24:02.047Z,44.29
2019-06-26T17:26:30.667Z,44.46
2019-06-26T17:28:59.226Z,44.90
2019-06-26T17:31:30.396Z,45.12
2019-06-26T17:33:58.938Z,45.53
2019-06-26T17:36:28.928Z,45.19
2019-06-26T17:38:57.665Z,45.29
2019-06-26T17:41:26.203Z,44.54
2019-06-26T17:43:54.727Z,43.91
2019-06-26T17:46:23.274Z,43.56
2019-06-26T17:48:51.779Z,43.52
2019-06-26T17:51:20.297Z,43.45
2019-06-26T17:53:48.800Z,43.58
2019-06-26T17:56:17.318Z,42.99
2019-06-26T17:58:45.839Z,42.31
2019-06-26T18:01:14.442Z,42.63
2019-06-26T18:03:43.041Z,43.42
2019-06-26T18:06:11.516Z,43.48
2019-06-26T18:08:40.039Z,43.49
2019-06-26T18:11:08.606Z,43.19
2019-06-26T18:13:37.094Z,43.11
2019-06-26T18:16:05.623Z,43.27
2019-06-26T18:18:34.213Z,43.22
2019-06-26T18:21:02.800Z,43.99
2019-06-26T18:23:37.717Z,44.51
2019-06-26T18:26:12.505Z,44.17
2019-06-26T18:28:31.789Z,44.26
2019-06-26T18:31:00.294Z,44.57
2019-06-26T18:33:28.860Z,45.30
2019-06-26T18:35:57.414Z,45.25
2019-06-26T18:38:26.025Z,44.97
2019-06-26T18:40:54.516Z,45.64
2019-06-26T18:43:23.072Z,45.43
2019-06-26T18:45:51.651Z,45.02
2019-06-26T18:48:20.220Z,46.13
2019-06-26T18:50:48.717Z,46.35
2019-06-26T18:53:17.264Z,45.86
2019-06-26T18:55:45.829Z,46.19
2019-06-26T18:58:14.427Z,46.29
2019-06-26T19:00:42.918Z,46.36
2019-06-26T19:03:11.528Z,47.14
2019-06-26T19:05:40.022Z,47.43
2019-06-26T19:08:08.625Z,47.54
2019-06-26T19:10:38.688Z,47.69
2019-06-26T19:13:07.270Z,48.41
2019-06-26T19:15:35.806Z,48.95
2019-06-26T19:18:05.024Z,48.01
2019-06-26T19:20:33.973Z,48.18
2019-06-26T19:23:02.814Z,48.93
2019-06-26T19:25:31.368Z,48.51
2019-06-26T19:28:00.045Z,49.62
2019-06-26T19:30:28.541Z,49.49
2019-06-26T19:32:57.076Z,49.42
2019-06-26T19:35:25.579Z,49.38
2019-06-26T19:37:54.215Z,50.53
2019-06-26T19:40:24.167Z,50.41
2019-06-26T19:42:53.096Z,50.11
2019-06-26T19:45:21.951Z,50.22
2019-06-26T19:47:50.597Z,50.22
2019-06-26T19:50:23.199Z,49.96
2019-06-26T19:52:49.786Z,51.01
2019-06-26T19:55:18.707Z,51.01
2019-06-26T19:57:47.325Z,52.37
2019-06-26T20:00:16.297Z,52.33
2019-06-26T20:02:44.782Z,52.49
2019-06-26T20:05:16.010Z,53.65
2019-06-26T20:07:44.620Z,52.92
2019-06-26T20:10:13.714Z,53.69
2019-06-26T20:12:42.307Z,53.20
2019-06-26T20:15:11.257Z,53.43
2019-06-26T20:17:39.810Z,53.73
2019-06-26T20:20:10.147Z,54.08
2019-06-26T20:22:38.922Z,53.66
2019-06-26T20:25:08.670Z,53.87
2019-06-26T20:27:37.187Z,54.65
2019-06-26T20:30:10.215Z,54.09
2019-06-26T20:32:38.883Z,54.83
2019-06-26T20:35:08.064Z,55.20
2019-06-26T20:37:36.798Z,55.35
2019-06-26T20:40:26.296Z,54.38
2019-06-26T20:42:54.833Z,55.36
2019-06-26T20:45:23.390Z,55.72
2019-06-26T20:47:51.864Z,55.54
2019-06-26T20:50:20.430Z,55.20
2019-06-26T20:52:48.959Z,56.02
2019-06-26T20:55:17.484Z,56.57
2019-06-26T20:57:45.964Z,56.52
2019-06-26T21:00:15.147Z,57.53
2019-06-26T21:02:43.747Z,57.46
2019-06-26T21:05:15.427Z,58.26
2019-06-26T21:07:44.100Z,56.40
2019-06-26T21:10:12.705Z,58.48
2019-06-26T21:12:41.233Z,57.39
2019-06-26T21:15:09.903Z,58.28
2019-06-26T21:17:38.525Z,58.61
2019-06-26T21:20:08.305Z,58.59
2019-06-26T21:22:36.888Z,58.31
2019-06-26T21:25:18.805Z,59.31
2019-06-26T21:27:41.234Z,59.08
2019-06-26T21:30:10.482Z,59.12
2019-06-26T21:32:39.045Z,59.02
2019-06-26T21:35:07.586Z,60.08
2019-06-26T21:37:36.072Z,59.75
2019-06-26T21:40:04.939Z,59.72
2019-06-26T21:42:33.586Z,59.45
2019-06-26T21:45:02.316Z,59.63
2019-06-26T21:47:30.839Z,59.78
2019-06-26T21:49:59.339Z,60.10
2019-06-26T21:52:27.904Z,58.98
2019-06-26T21:54:56.524Z,59.67
2019-06-26T21:57:25.060Z,58.56
2019-06-26T21:59:53.596Z,59.34
2019-06-26T22:02:22.117Z,60.42
2019-06-26T22:04:50.703Z,59.47
2019-06-26T22:07:19.280Z,60.31
2019-06-26T22:09:47.960Z,59.52
2019-06-26T22:12:16.605Z,60.12
2019-06-26T22:14:45.174Z,60.36
2019-06-26T22:17:13.733Z,59.89
2019-06-26T22:19:42.219Z,60.23
2019-06-26T22:22:10.791Z,60.25
2019-06-26T22:24:39.377Z,60.92
2019-06-26T22:27:07.924Z,60.24
2019-06-26T22:29:36.451Z,61.01
2019-06-26T22:32:05.023Z,61.13
2019-06-26T22:34:33.584Z,60.99
2019-06-26T22:37:02.096Z,60.78
2019-06-26T22:39:30.624Z,61.56
2019-06-26T22:41:59.216Z,61.23
2019-06-26T22:44:27.744Z,61.67
2019-06-26T22:46:56.277Z,62.16
2019-06-26T22:49:24.846Z,61.99
2019-06-26T22:51:53.424Z,62.47
2019-06-26T22:54:22.083Z,63.15
2019-06-26T22:56:50.624Z,62.69
2019-06-26T22:59:19.144Z,62.94
2019-06-26T23:01:47.691Z,63.84
2019-06-26T23:04:16.195Z,62.78
2019-06-26T23:06:44.721Z,63.55
2019-06-26T23:09:13.188Z,62.90
2019-06-26T23:11:41.728Z,64.62
2019-06-26T23:14:10.273Z,64.93
2019-06-26T23:16:38.919Z,64.45
2019-06-26T23:19:07.463Z,64.24
2019-06-26T23:21:35.978Z,64.52
2019-06-26T23:24:04.547Z,64.54
2019-06-26T23:26:33.056Z,64.42
2019-06-26T23:29:01.593Z,65.32
2019-06-26T23:31:30.223Z,66.05
2019-06-26T23:33:58.746Z,66.78
2019-06-26T23:36:27.364Z,67.22
2019-06-26T23:38:55.929Z,67.22
2019-06-26T23:41:24.487Z,67.69
2019-06-26T23:43:53.070Z,67.88
2019-06-26T23:46:21.641Z,65.10
2019-06-26T23:48:50.202Z,67.41
2019-06-26T23:51:18.752Z,68.33
2019-06-26T23:53:47.333Z,67.88
2019-06-26T23:56:15.864Z,68.71
2019-06-26T23:58:44.352Z,69.09
